M C B H Kaneohe Bay, Hawaii
Current Conditions -  °F | °C
As of 1:57 PM on Friday 26 Dec 2014 (Local Time) from PHNG Reporting Station
Scattered Clouds Scattered Clouds  
Wind Chill: 79°   Ceiling: Unl
Heat Index: 81°   Visibility: 10mi
Dew Point: 66°   Wind: 7mph
Humidity: 64%   Direction: 60°ENE
Pressure: 29.77"   Gusts: NA
Location:  21.4527°N, 157.772°W
Report Text: PHNG 262357Z 06006KT 10SM SCT032 SCT041 26/19 A2977 RMK AO2 SLP075 T02610189 10261 20206 58023 $
Loading
Personal Weather Stations






























Interactive Weather Map New forecast layout! Learn more

10-Day Weather Forecast

Advertisements
Track Severe Weather on mobile